Terminal Aerodrome Forecast
Issued by NWS Louisville, KY

Home | Current Version | Previous Version | Text Only | Print | Product List | Glossary On
Versions: 1 2 3 4 5 6 7 8 9 10 11 12 13 14 15 16 17 18
264
FTUS43 KLMK 201739
TAFLEX
TAF
KLEX 201739Z 2018/2118 22016G25KT P6SM VCSH SCT035 BKN130
     FM202300 22014G23KT 6SM -SHRA VCTS BKN060CB
     FM210300 23013KT P6SM VCSH SCT050 BKN120
     FM210900 29009KT P6SM VCSH BKN009
     FM211400 32007KT P6SM BKN015=

USA.gov is the U.S. government's official web portal to all federal, state and local government web resources and services.